»·PEaware :: DCM9600 KBFI-KBFI

DCM9600 :: KBFI-KBFI

FLIGHT INFORMATION

Flight Status: Arrived
Operator: DotCom
More flights by this operator :: More flights under this callsign
Pilot: Anonymous 3903 (3903)
Aircraft: BOEING 737-700
(B737)
More flights by this aircraft type
Origin: KBFI Boeing Field/King Co Intl
United States
Destination: KBFI Boeing Field/King Co Intl
United States
More flights between these airports :: More routes between these airports
Route: CBAIN1 PAE
File this flight plan on PilotEdge
Remarks: LcL training Flt
Altitude:
(Current/Filed)
9,000ft
Speed:
(Current/Filed)
350kts
Departed: 03-Feb-19 08:56 PM
Arrived: 03-Feb-19 09:40 PM
Distance/Time
Traveled:
0nm/0:44
Distance/Time
To Go:
Arrived

Flight Plot

Page will automatically refresh every two minutes.


Map Options




Map Legend


Flown Route
Filed Route
Departure Airport
Arrival Airport
Navaid (VOR, NDB)
Fix

Horizontal Profiles

Position Reports

Time Latitude Longitude Heading Altitude Ground
Speed
03-Feb-19 20:23 47.528880 -122.297224 57 25ft 0kts
03-Feb-19 20:24 47.528880 -122.297224 57 25ft 0kts
03-Feb-19 20:25 47.528880 -122.297224 57 25ft 0kts
03-Feb-19 20:26 47.528880 -122.297224 57 25ft 0kts
03-Feb-19 20:27 47.528880 -122.297224 57 25ft 0kts
03-Feb-19 20:28 47.528880 -122.297224 57 25ft 0kts
03-Feb-19 20:29 47.528880 -122.297224 57 25ft 0kts
03-Feb-19 20:30 47.528880 -122.297224 57 25ft 0kts
03-Feb-19 20:31 47.528880 -122.297224 57 25ft 0kts
03-Feb-19 20:31 47.528880 -122.297224 57 25ft 0kts
03-Feb-19 20:32 47.528880 -122.297224 57 25ft 0kts
03-Feb-19 20:34 47.528880 -122.297224 57 25ft 0kts
03-Feb-19 20:34 47.528880 -122.297224 57 25ft 0kts
03-Feb-19 20:35 47.528880 -122.297224 57 25ft 0kts
03-Feb-19 20:36 47.528880 -122.297224 57 25ft 0kts
03-Feb-19 20:37 47.528880 -122.297224 57 25ft 0kts
03-Feb-19 20:38 47.528880 -122.297224 57 25ft 0kts
03-Feb-19 20:39 47.528880 -122.297224 57 25ft 0kts
03-Feb-19 20:40 47.528880 -122.297224 57 25ft 0kts
03-Feb-19 20:41 47.528880 -122.297224 57 25ft 0kts
03-Feb-19 20:42 47.528880 -122.297224 57 25ft 0kts
03-Feb-19 20:43 47.528880 -122.297224 57 25ft 0kts
03-Feb-19 20:44 47.528723 -122.297870 90 25ft 2kts
03-Feb-19 20:45 47.528880 -122.298509 127 25ft 0kts
03-Feb-19 20:46 47.528773 -122.298343 146 25ft 0kts
03-Feb-19 20:47 47.525682 -122.297232 149 25ft 15kts
03-Feb-19 20:48 47.522643 -122.294578 148 25ft 13kts
03-Feb-19 20:49 47.519996 -122.292375 152 25ft 0kts
03-Feb-19 20:50 47.519996 -122.292375 152 25ft 0kts
03-Feb-19 20:51 47.519996 -122.292375 152 25ft 0kts
03-Feb-19 20:52 47.519996 -122.292375 152 25ft 0kts
03-Feb-19 20:53 47.519995 -122.292374 152 25ft 0kts
03-Feb-19 20:54 47.519017 -122.292782 235 25ft 9kts
03-Feb-19 20:55 47.522190 -122.295864 330 26ft 81kts
03-Feb-19 20:56 47.561587 -122.330298 328 1582ft 193kts
03-Feb-19 20:57 47.610221 -122.386116 311 2550ft 236kts
03-Feb-19 20:58 47.632977 -122.478349 238 5418ft 272kts
03-Feb-19 20:59 47.568079 -122.523814 195 8602ft 265kts
03-Feb-19 21:00 47.496702 -122.531087 149 8992ft 271kts
03-Feb-19 21:01 47.436285 -122.464180 145 8979ft 274kts
03-Feb-19 21:02 47.374982 -122.395851 145 8244ft 273kts
03-Feb-19 21:03 47.315005 -122.329911 145 7246ft 266kts
03-Feb-19 21:04 47.256434 -122.265009 133 6229ft 261kts
03-Feb-19 21:05 47.235095 -122.163308 105 5004ft 259kts
03-Feb-19 21:06 47.267582 -122.090383 0 3700ft 253kts
03-Feb-19 21:07 47.328817 -122.132990 330 2429ft 238kts
03-Feb-19 21:08 47.380098 -122.176176 330 2287ft 189kts
03-Feb-19 21:09 47.423869 -122.212981 330 2190ft 171kts
03-Feb-19 21:10 47.464143 -122.247685 328 1203ft 155kts
03-Feb-19 21:11 47.502126 -122.279511 330 416ft 153kts
03-Feb-19 21:12 47.545861 -122.316999 319 2308ft 234kts
03-Feb-19 21:13 47.578000 -122.406437 288 5322ft 274kts
03-Feb-19 21:14 47.639702 -122.475808 331 6017ft 277kts
03-Feb-19 21:15 47.702918 -122.531650 325 6018ft 257kts
03-Feb-19 21:16 47.762760 -122.590896 324 6021ft 260kts
03-Feb-19 21:17 47.822001 -122.650589 324 5823ft 255kts
03-Feb-19 21:18 47.886399 -122.674203 41 4803ft 262kts
03-Feb-19 21:19 47.869021 -122.594343 176 3808ft 260kts
03-Feb-19 21:20 47.803826 -122.630685 164 2941ft 258kts
03-Feb-19 21:21 47.747028 -122.580089 145 2886ft 220kts
03-Feb-19 21:22 47.699596 -122.533512 144 2647ft 203kts
03-Feb-19 21:23 47.656189 -122.485104 127 2897ft 196kts
03-Feb-19 21:24 47.627251 -122.416810 121 2918ft 196kts
03-Feb-19 21:25 47.595678 -122.356241 145 2056ft 184kts
03-Feb-19 21:26 47.551337 -122.320045 150 1243ft 189kts
03-Feb-19 21:27 47.499608 -122.278118 150 2043ft 228kts
03-Feb-19 21:28 47.444256 -122.232902 150 2310ft 226kts
03-Feb-19 21:29 47.381412 -122.231391 185 2522ft 230kts
03-Feb-19 21:30 47.318161 -122.240824 185 2507ft 228kts
03-Feb-19 21:31 47.258507 -122.213520 155 2505ft 228kts
03-Feb-19 21:32 47.245727 -122.141945 57 2499ft 212kts
03-Feb-19 21:33 47.296870 -122.116122 4 2525ft 200kts
03-Feb-19 21:34 47.344515 -122.146379 325 2509ft 185kts
03-Feb-19 21:35 47.390668 -122.185170 327 2517ft 188kts
03-Feb-19 21:36 47.433677 -122.222689 328 1964ft 162kts
03-Feb-19 21:37 47.470487 -122.252536 321 1133ft 146kts
03-Feb-19 21:38 47.506706 -122.282756 324 385ft 147kts
03-Feb-19 21:39 47.528652 -122.301416 309 26ft 0kts
03-Feb-19 21:40 47.530220 -122.302263 28 26ft 0kts

Navigation Log

Ident Type
Flight plan parsing failed, navigation log unavailable